sensor_id;sensor_type;location;lat;lon;timestamp;pressure;altitude;pressure_sealevel;temperature;humidity
17072;BME280;7731;50.720;6.912;2022-12-18T00:01:35;101306.25;;;-5.86;100.00
17072;BME280;7731;50.720;6.912;2022-12-18T00:04:14;101304.06;;;-5.77;100.00
17072;BME280;7731;50.720;6.912;2022-12-18T00:06:46;101297.00;;;-5.65;99.46
17072;BME280;7731;50.720;6.912;2022-12-18T00:09:17;101305.81;;;-5.99;97.38
17072;BME280;7731;50.720;6.912;2022-12-18T00:11:51;101298.63;;;-5.89;100.00
17072;BME280;7731;50.720;6.912;2022-12-18T00:14:24;101294.03;;;-6.01;100.00
17072;BME280;7731;50.720;6.912;2022-12-18T00:16:54;101297.28;;;-6.26;100.00
17072;BME280;7731;50.720;6.912;2022-12-18T00:19:27;101292.28;;;-6.26;100.00
17072;BME280;7731;50.720;6.912;2022-12-18T00:21:59;101292.53;;;-6.20;100.00
17072;BME280;7731;50.720;6.912;2022-12-18T00:24:30;101296.59;;;-6.00;100.00
17072;BME280;7731;50.720;6.912;2022-12-18T00:27:00;101298.31;;;-5.99;100.00
17072;BME280;7731;50.720;6.912;2022-12-18T00:29:33;101306.13;;;-6.35;100.00
17072;BME280;7731;50.720;6.912;2022-12-18T00:32:03;101311.19;;;-6.96;100.00
17072;BME280;7731;50.720;6.912;2022-12-18T00:34:33;101319.34;;;-7.01;100.00
17072;BME280;7731;50.720;6.912;2022-12-18T00:37:03;101314.63;;;-6.73;100.00
17072;BME280;7731;50.720;6.912;2022-12-18T00:39:34;101327.56;;;-6.62;100.00
17072;BME280;7731;50.720;6.912;2022-12-18T00:42:04;101320.66;;;-6.89;100.00
17072;BME280;7731;50.720;6.912;2022-12-18T00:44:54;101322.13;;;-6.52;100.00
17072;BME280;7731;50.720;6.912;2022-12-18T00:47:27;101310.09;;;-6.40;100.00
17072;BME280;7731;50.720;6.912;2022-12-18T00:49:57;101312.88;;;-6.11;100.00
17072;BME280;7731;50.720;6.912;2022-12-18T00:52:29;101307.03;;;-6.33;100.00
17072;BME280;7731;50.720;6.912;2022-12-18T00:55:01;101315.31;;;-6.13;100.00
17072;BME280;7731;50.720;6.912;2022-12-18T00:57:33;101312.31;;;-6.26;100.00
17072;BME280;7731;50.720;6.912;2022-12-18T01:00:09;101323.06;;;-6.06;100.00
17072;BME280;7731;50.720;6.912;2022-12-18T01:02:42;101309.22;;;-5.97;100.00
17072;BME280;7731;50.720;6.912;2022-12-18T01:05:14;101306.75;;;-5.95;100.00
17072;BME280;7731;50.720;6.912;2022-12-18T01:07:44;101307.34;;;-5.78;100.00
17072;BME280;7731;50.720;6.912;2022-12-18T01:10:17;101303.63;;;-5.89;100.00
17072;BME280;7731;50.720;6.912;2022-12-18T01:12:47;101310.22;;;-5.92;100.00
17072;BME280;7731;50.720;6.912;2022-12-18T01:15:20;101315.44;;;-5.85;100.00
17072;BME280;7731;50.720;6.912;2022-12-18T01:17:52;101310.44;;;-5.85;100.00
17072;BME280;7731;50.720;6.912;2022-12-18T01:20:22;101305.13;;;-5.70;100.00
17072;BME280;7731;50.720;6.912;2022-12-18T01:22:52;101305.44;;;-5.85;99.34
17072;BME280;7731;50.720;6.912;2022-12-18T01:25:22;101311.69;;;-5.74;100.00
17072;BME280;7731;50.720;6.912;2022-12-18T01:27:53;101302.25;;;-5.81;100.00
17072;BME280;7731;50.720;6.912;2022-12-18T01:30:25;101306.56;;;-5.77;100.00
17072;BME280;7731;50.720;6.912;2022-12-18T01:32:55;101303.97;;;-5.80;100.00
17072;BME280;7731;50.720;6.912;2022-12-18T01:35:26;101309.38;;;-5.92;100.00
17072;BME280;7731;50.720;6.912;2022-12-18T01:37:57;101304.09;;;-6.22;100.00
17072;BME280;7731;50.720;6.912;2022-12-18T01:40:27;101307.66;;;-6.38;100.00
17072;BME280;7731;50.720;6.912;2022-12-18T01:42:58;101316.38;;;-6.06;100.00
17072;BME280;7731;50.720;6.912;2022-12-18T01:45:32;101299.66;;;-6.07;100.00
17072;BME280;7731;50.720;6.912;2022-12-18T01:48:06;101293.72;;;-5.86;100.00
17072;BME280;7731;50.720;6.912;2022-12-18T01:50:40;101304.31;;;-5.94;100.00
17072;BME280;7731;50.720;6.912;2022-12-18T01:53:16;101301.38;;;-6.06;100.00
17072;BME280;7731;50.720;6.912;2022-12-18T01:55:49;101288.41;;;-6.18;100.00
17072;BME280;7731;50.720;6.912;2022-12-18T01:58:25;101293.31;;;-5.99;100.00
17072;BME280;7731;50.720;6.912;2022-12-18T02:01:01;101284.78;;;-6.04;100.00
17072;BME280;7731;50.720;6.912;2022-12-18T02:03:31;101285.66;;;-6.03;100.00
17072;BME280;7731;50.720;6.912;2022-12-18T02:06:12;101279.59;;;-6.08;100.00
17072;BME280;7731;50.720;6.912;2022-12-18T02:08:56;101278.50;;;-5.93;100.00
17072;BME280;7731;50.720;6.912;2022-12-18T02:11:42;101281.47;;;-6.03;100.00
17072;BME280;7731;50.720;6.912;2022-12-18T02:14:27;101287.28;;;-6.04;100.00
17072;BME280;7731;50.720;6.912;2022-12-18T02:17:07;101299.88;;;-6.01;100.00
17072;BME280;7731;50.720;6.912;2022-12-18T02:19:55;101284.22;;;-5.95;100.00
17072;BME280;7731;50.720;6.912;2022-12-18T02:22:45;101277.63;;;-5.93;100.00
17072;BME280;7731;50.720;6.912;2022-12-18T02:25:43;101283.84;;;-5.83;100.00
17072;BME280;7731;50.720;6.912;2022-12-18T02:28:23;101269.56;;;-5.86;100.00
17072;BME280;7731;50.720;6.912;2022-12-18T02:30:59;101282.69;;;-5.92;100.00
17072;BME280;7731;50.720;6.912;2022-12-18T02:33:35;101286.47;;;-6.03;100.00
17072;BME280;7731;50.720;6.912;2022-12-18T02:36:09;101279.19;;;-5.97;100.00
17072;BME280;7731;50.720;6.912;2022-12-18T02:38:44;101278.38;;;-5.96;100.00
17072;BME280;7731;50.720;6.912;2022-12-18T02:41:16;101277.50;;;-5.96;100.00
17072;BME280;7731;50.720;6.912;2022-12-18T02:43:57;101290.47;;;-6.08;100.00
17072;BME280;7731;50.720;6.912;2022-12-18T02:46:35;101300.97;;;-5.94;100.00
17072;BME280;7731;50.720;6.912;2022-12-18T02:49:26;101287.88;;;-6.11;100.00
17072;BME280;7731;50.720;6.912;2022-12-18T02:52:09;101277.75;;;-6.14;100.00
17072;BME280;7731;50.720;6.912;2022-12-18T02:55:16;101282.97;;;-6.08;100.00
17072;BME280;7731;50.720;6.912;2022-12-18T02:57:54;101281.47;;;-6.03;100.00
17072;BME280;7731;50.720;6.912;2022-12-18T03:00:35;101273.69;;;-6.11;100.00
17072;BME280;7731;50.720;6.912;2022-12-18T03:03:13;101282.81;;;-6.13;100.00
17072;BME280;7731;50.720;6.912;2022-12-18T03:05:53;101280.34;;;-6.11;100.00
17072;BME280;7731;50.720;6.912;2022-12-18T03:08:29;101280.66;;;-6.47;100.00
17072;BME280;7731;50.720;6.912;2022-12-18T03:11:04;101278.59;;;-6.57;100.00
17072;BME280;7731;50.720;6.912;2022-12-18T03:13:40;101279.03;;;-6.68;100.00
17072;BME280;7731;50.720;6.912;2022-12-18T03:16:22;101286.03;;;-6.59;100.00
17072;BME280;7731;50.720;6.912;2022-12-18T03:18:58;101279.53;;;-6.55;100.00
17072;BME280;7731;50.720;6.912;2022-12-18T03:21:39;101282.44;;;-6.66;100.00
17072;BME280;7731;50.720;6.912;2022-12-18T03:24:11;101277.25;;;-6.91;100.00
17072;BME280;7731;50.720;6.912;2022-12-18T03:26:47;101261.38;;;-6.93;100.00
17072;BME280;7731;50.720;6.912;2022-12-18T03:29:26;101256.97;;;-6.99;100.00
17072;BME280;7731;50.720;6.912;2022-12-18T03:32:05;101255.38;;;-6.76;100.00
17072;BME280;7731;50.720;6.912;2022-12-18T03:34:40;101247.03;;;-6.97;100.00
17072;BME280;7731;50.720;6.912;2022-12-18T03:37:11;101254.47;;;-6.78;100.00
17072;BME280;7731;50.720;6.912;2022-12-18T03:39:41;101247.41;;;-6.88;100.00
17072;BME280;7731;50.720;6.912;2022-12-18T03:42:23;101255.91;;;-6.85;100.00
17072;BME280;7731;50.720;6.912;2022-12-18T03:45:05;101256.78;;;-6.83;100.00
17072;BME280;7731;50.720;6.912;2022-12-18T03:47:55;101253.47;;;-6.83;100.00
17072;BME280;7731;50.720;6.912;2022-12-18T03:50:38;101232.03;;;-6.55;100.00
17072;BME280;7731;50.720;6.912;2022-12-18T03:53:28;101237.94;;;-6.08;100.00
17072;BME280;7731;50.720;6.912;2022-12-18T03:56:06;101233.28;;;-5.99;100.00
17072;BME280;7731;50.720;6.912;2022-12-18T03:58:40;101226.59;;;-5.74;100.00
17072;BME280;7731;50.720;6.912;2022-12-18T04:01:15;101221.47;;;-5.77;100.00
17072;BME280;7731;50.720;6.912;2022-12-18T04:03:52;101220.09;;;-5.69;100.00
17072;BME280;7731;50.720;6.912;2022-12-18T04:06:23;101216.50;;;-5.51;100.00
17072;BME280;7731;50.720;6.912;2022-12-18T04:08:54;101216.06;;;-5.64;100.00
17072;BME280;7731;50.720;6.912;2022-12-18T04:11:24;101223.75;;;-5.59;100.00
17072;BME280;7731;50.720;6.912;2022-12-18T04:13:56;101219.72;;;-5.56;100.00
17072;BME280;7731;50.720;6.912;2022-12-18T04:16:33;101220.13;;;-5.43;100.00
17072;BME280;7731;50.720;6.912;2022-12-18T04:19:05;101220.84;;;-5.46;100.00
17072;BME280;7731;50.720;6.912;2022-12-18T04:21:36;101223.22;;;-5.50;100.00
17072;BME280;7731;50.720;6.912;2022-12-18T04:24:07;101225.03;;;-5.46;100.00
17072;BME280;7731;50.720;6.912;2022-12-18T04:26:39;101225.19;;;-5.66;100.00
17072;BME280;7731;50.720;6.912;2022-12-18T04:29:09;101227.00;;;-5.62;100.00
17072;BME280;7731;50.720;6.912;2022-12-18T04:31:39;101226.56;;;-5.50;100.00
17072;BME280;7731;50.720;6.912;2022-12-18T04:34:13;101221.28;;;-5.58;100.00
17072;BME280;7731;50.720;6.912;2022-12-18T04:36:43;101214.91;;;-5.49;100.00
17072;BME280;7731;50.720;6.912;2022-12-18T04:39:17;101220.97;;;-5.43;100.00
17072;BME280;7731;50.720;6.912;2022-12-18T04:41:49;101219.91;;;-5.49;99.95
17072;BME280;7731;50.720;6.912;2022-12-18T04:44:19;101212.16;;;-5.57;99.92
17072;BME280;7731;50.720;6.912;2022-12-18T04:46:50;101213.72;;;-5.59;100.00
17072;BME280;7731;50.720;6.912;2022-12-18T04:49:24;101220.19;;;-5.66;100.00
17072;BME280;7731;50.720;6.912;2022-12-18T04:51:54;101211.78;;;-5.68;100.00
17072;BME280;7731;50.720;6.912;2022-12-18T04:54:24;101200.94;;;-5.67;100.00
17072;BME280;7731;50.720;6.912;2022-12-18T04:56:55;101195.00;;;-5.70;100.00
17072;BME280;7731;50.720;6.912;2022-12-18T04:59:27;101190.16;;;-5.66;100.00
17072;BME280;7731;50.720;6.912;2022-12-18T05:01:57;101189.25;;;-5.68;100.00
17072;BME280;7731;50.720;6.912;2022-12-18T05:04:30;101188.53;;;-5.64;100.00
17072;BME280;7731;50.720;6.912;2022-12-18T05:07:00;101184.16;;;-5.71;100.00
17072;BME280;7731;50.720;6.912;2022-12-18T05:09:30;101178.38;;;-5.68;100.00
17072;BME280;7731;50.720;6.912;2022-12-18T05:12:00;101188.94;;;-5.77;100.00
17072;BME280;7731;50.720;6.912;2022-12-18T05:14:30;101190.72;;;-5.73;100.00
17072;BME280;7731;50.720;6.912;2022-12-18T05:17:00;101189.72;;;-5.78;100.00
17072;BME280;7731;50.720;6.912;2022-12-18T05:19:33;101179.03;;;-5.74;100.00
17072;BME280;7731;50.720;6.912;2022-12-18T05:22:09;101177.63;;;-5.66;100.00
17072;BME280;7731;50.720;6.912;2022-12-18T05:24:40;101174.03;;;-5.74;100.00
17072;BME280;7731;50.720;6.912;2022-12-18T05:27:10;101169.91;;;-5.72;100.00
17072;BME280;7731;50.720;6.912;2022-12-18T05:29:40;101179.03;;;-5.74;100.00
17072;BME280;7731;50.720;6.912;2022-12-18T05:32:10;101189.25;;;-5.68;100.00
17072;BME280;7731;50.720;6.912;2022-12-18T05:34:43;101190.84;;;-5.70;100.00
17072;BME280;7731;50.720;6.912;2022-12-18T05:37:13;101197.56;;;-5.69;100.00
17072;BME280;7731;50.720;6.912;2022-12-18T05:39:44;101199.91;;;-5.74;100.00
17072;BME280;7731;50.720;6.912;2022-12-18T05:42:14;101202.03;;;-5.60;100.00
17072;BME280;7731;50.720;6.912;2022-12-18T05:44:44;101204.22;;;-5.69;100.00
17072;BME280;7731;50.720;6.912;2022-12-18T05:47:14;101203.66;;;-5.61;100.00
17072;BME280;7731;50.720;6.912;2022-12-18T05:49:47;101213.63;;;-5.62;100.00
17072;BME280;7731;50.720;6.912;2022-12-18T05:52:17;101221.19;;;-5.61;100.00
17072;BME280;7731;50.720;6.912;2022-12-18T05:54:48;101222.91;;;-5.60;100.00
17072;BME280;7731;50.720;6.912;2022-12-18T05:57:18;101231.09;;;-5.64;100.00
17072;BME280;7731;50.720;6.912;2022-12-18T05:59:48;101236.16;;;-5.62;100.00
17072;BME280;7731;50.720;6.912;2022-12-18T06:02:19;101238.59;;;-5.64;100.00
17072;BME280;7731;50.720;6.912;2022-12-18T06:04:57;101238.13;;;-5.53;100.00
17072;BME280;7731;50.720;6.912;2022-12-18T06:07:27;101241.41;;;-5.54;100.00
17072;BME280;7731;50.720;6.912;2022-12-18T06:09:57;101253.94;;;-5.54;100.00
17072;BME280;7731;50.720;6.912;2022-12-18T06:12:27;101248.94;;;-5.54;100.00
17072;BME280;7731;50.720;6.912;2022-12-18T06:14:57;101258.06;;;-5.57;100.00
17072;BME280;7731;50.720;6.912;2022-12-18T06:17:29;101246.63;;;-5.48;100.00
17072;BME280;7731;50.720;6.912;2022-12-18T06:20:05;101239.94;;;-5.49;100.00
17072;BME280;7731;50.720;6.912;2022-12-18T06:22:37;101252.41;;;-5.51;100.00
17072;BME280;7731;50.720;6.912;2022-12-18T06:25:08;101253.25;;;-5.50;100.00
17072;BME280;7731;50.720;6.912;2022-12-18T06:27:39;101254.75;;;-5.56;100.00
17072;BME280;7731;50.720;6.912;2022-12-18T06:30:14;101249.66;;;-5.59;100.00
17072;BME280;7731;50.720;6.912;2022-12-18T06:32:45;101247.94;;;-5.60;100.00
17072;BME280;7731;50.720;6.912;2022-12-18T06:35:25;101251.34;;;-5.58;100.00
17072;BME280;7731;50.720;6.912;2022-12-18T06:37:55;101254.88;;;-5.52;100.00
17072;BME280;7731;50.720;6.912;2022-12-18T06:40:25;101243.13;;;-5.53;100.00
17072;BME280;7731;50.720;6.912;2022-12-18T06:42:56;101240.44;;;-5.60;100.00
17072;BME280;7731;50.720;6.912;2022-12-18T06:45:28;101236.31;;;-5.58;100.00
17072;BME280;7731;50.720;6.912;2022-12-18T06:47:58;101245.59;;;-5.55;100.00
17072;BME280;7731;50.720;6.912;2022-12-18T06:50:42;101247.34;;;-5.52;100.00
17072;BME280;7731;50.720;6.912;2022-12-18T06:53:12;101244.81;;;-5.54;100.00
17072;BME280;7731;50.720;6.912;2022-12-18T06:55:43;101241.53;;;-5.51;100.00
17072;BME280;7731;50.720;6.912;2022-12-18T06:58:14;101238.34;;;-5.47;100.00
17072;BME280;7731;50.720;6.912;2022-12-18T07:00:45;101241.53;;;-5.51;100.00
17072;BME280;7731;50.720;6.912;2022-12-18T07:03:15;101234.88;;;-5.51;100.00
17072;BME280;7731;50.720;6.912;2022-12-18T07:05:48;101239.91;;;-5.51;100.00
17072;BME280;7731;50.720;6.912;2022-12-18T07:08:19;101235.88;;;-5.46;100.00
17072;BME280;7731;50.720;6.912;2022-12-18T07:10:50;101232.44;;;-5.49;100.00
17072;BME280;7731;50.720;6.912;2022-12-18T07:13:24;101234.38;;;-5.41;100.00
17072;BME280;7731;50.720;6.912;2022-12-18T07:15:54;101240.25;;;-5.40;100.00
17072;BME280;7731;50.720;6.912;2022-12-18T07:18:24;101246.06;;;-5.41;100.00
17072;BME280;7731;50.720;6.912;2022-12-18T07:20:58;101245.25;;;-5.40;100.00
17072;BME280;7731;50.720;6.912;2022-12-18T07:23:33;101251.97;;;-5.39;100.00
17072;BME280;7731;50.720;6.912;2022-12-18T07:26:08;101240.16;;;-5.43;100.00
17072;BME280;7731;50.720;6.912;2022-12-18T07:28:41;101245.06;;;-5.46;100.00
17072;BME280;7731;50.720;6.912;2022-12-18T07:31:16;101239.38;;;-5.41;100.00
17072;BME280;7731;50.720;6.912;2022-12-18T07:33:51;101232.53;;;-5.46;100.00
17072;BME280;7731;50.720;6.912;2022-12-18T07:36:27;101225.22;;;-5.40;100.00
17072;BME280;7731;50.720;6.912;2022-12-18T07:38:59;101214.38;;;-5.39;100.00
17072;BME280;7731;50.720;6.912;2022-12-18T07:41:30;101219.09;;;-5.48;100.00
17072;BME280;7731;50.720;6.912;2022-12-18T07:44:00;101218.34;;;-5.46;100.00
17072;BME280;7731;50.720;6.912;2022-12-18T07:46:32;101223.63;;;-5.38;100.00
17072;BME280;7731;50.720;6.912;2022-12-18T07:49:03;101233.63;;;-5.38;100.00
17072;BME280;7731;50.720;6.912;2022-12-18T07:51:37;101236.41;;;-5.30;100.00
17072;BME280;7731;50.720;6.912;2022-12-18T07:54:08;101232.84;;;-5.37;100.00
17072;BME280;7731;50.720;6.912;2022-12-18T07:56:38;101239.06;;;-5.26;100.00
17072;BME280;7731;50.720;6.912;2022-12-18T07:59:10;101230.94;;;-5.18;100.00
17072;BME280;7731;50.720;6.912;2022-12-18T08:01:40;101236.16;;;-5.12;99.61
17072;BME280;7731;50.720;6.912;2022-12-18T08:04:14;101238.66;;;-5.12;99.61
17072;BME280;7731;50.720;6.912;2022-12-18T08:06:48;101231.97;;;-5.12;99.33
17072;BME280;7731;50.720;6.912;2022-12-18T08:09:18;101210.44;;;-5.07;99.08
17072;BME280;7731;50.720;6.912;2022-12-18T08:11:49;101208.09;;;-5.02;98.78
17072;BME280;7731;50.720;6.912;2022-12-18T08:14:19;101198.34;;;-4.93;98.55
17072;BME280;7731;50.720;6.912;2022-12-18T08:16:50;101191.53;;;-4.97;98.33
17072;BME280;7731;50.720;6.912;2022-12-18T08:19:22;101188.19;;;-4.97;98.91
17072;BME280;7731;50.720;6.912;2022-12-18T08:21:55;101176.88;;;-4.85;98.12
17072;BME280;7731;50.720;6.912;2022-12-18T08:24:25;101175.25;;;-4.82;98.25
17072;BME280;7731;50.720;6.912;2022-12-18T08:26:55;101176.66;;;-4.63;97.80
17072;BME280;7731;50.720;6.912;2022-12-18T08:29:45;101171.50;;;-4.39;96.19
17072;BME280;7731;50.720;6.912;2022-12-18T08:32:16;101169.59;;;-4.48;96.40
17072;BME280;7731;50.720;6.912;2022-12-18T08:34:46;101174.16;;;-4.33;95.65
17072;BME280;7731;50.720;6.912;2022-12-18T08:37:19;101162.63;;;-4.28;95.19
17072;BME280;7731;50.720;6.912;2022-12-18T08:39:49;101160.19;;;-4.25;94.77
17072;BME280;7731;50.720;6.912;2022-12-18T08:42:20;101152.69;;;-4.25;94.61
17072;BME280;7731;50.720;6.912;2022-12-18T08:45:04;101168.56;;;-4.24;94.97
17072;BME280;7731;50.720;6.912;2022-12-18T08:47:34;101164.91;;;-4.05;94.56
17072;BME280;7731;50.720;6.912;2022-12-18T08:50:07;101173.69;;;-3.89;94.42
17072;BME280;7731;50.720;6.912;2022-12-18T08:52:41;101169.28;;;-3.98;93.76
17072;BME280;7731;50.720;6.912;2022-12-18T08:55:13;101167.91;;;-3.87;93.42
17072;BME280;7731;50.720;6.912;2022-12-18T08:57:47;101164.66;;;-3.83;92.79
17072;BME280;7731;50.720;6.912;2022-12-18T09:00:19;101172.09;;;-3.54;92.44
17072;BME280;7731;50.720;6.912;2022-12-18T09:02:49;101173.88;;;-3.50;91.20
17072;BME280;7731;50.720;6.912;2022-12-18T09:05:19;101166.78;;;-2.96;89.52
17072;BME280;7731;50.720;6.912;2022-12-18T09:07:55;101166.53;;;-2.67;87.03
17072;BME280;7731;50.720;6.912;2022-12-18T09:10:26;101161.63;;;-2.20;84.02
17072;BME280;7731;50.720;6.912;2022-12-18T09:12:56;101153.91;;;-1.84;82.45
17072;BME280;7731;50.720;6.912;2022-12-18T09:15:26;101152.56;;;-1.65;78.64
17072;BME280;7731;50.720;6.912;2022-12-18T09:17:56;101152.53;;;-1.14;77.54
17072;BME280;7731;50.720;6.912;2022-12-18T09:20:29;101157.38;;;-0.70;73.81
17072;BME280;7731;50.720;6.912;2022-12-18T09:23:05;101162.81;;;-1.00;74.71
17072;BME280;7731;50.720;6.912;2022-12-18T09:25:37;101149.44;;;-0.32;71.96
17072;BME280;7731;50.720;6.912;2022-12-18T09:28:16;101145.19;;;0.51;66.52
17072;BME280;7731;50.720;6.912;2022-12-18T09:30:48;101135.53;;;1.22;62.70
17072;BME280;7731;50.720;6.912;2022-12-18T09:33:20;101127.84;;;1.05;62.21
17072;BME280;7731;50.720;6.912;2022-12-18T09:35:50;101118.69;;;1.21;61.87
17072;BME280;7731;50.720;6.912;2022-12-18T09:38:23;101122.75;;;0.99;62.49
17072;BME280;7731;50.720;6.912;2022-12-18T09:40:59;101115.97;;;-0.09;64.22
17072;BME280;7731;50.720;6.912;2022-12-18T09:43:40;101128.88;;;-1.22;72.03
17072;BME280;7731;50.720;6.912;2022-12-18T09:46:18;101128.69;;;-0.77;71.92
17072;BME280;7731;50.720;6.912;2022-12-18T09:48:57;101126.72;;;-0.98;72.96
17072;BME280;7731;50.720;6.912;2022-12-18T09:51:35;101128.09;;;-1.18;72.98
17072;BME280;7731;50.720;6.912;2022-12-18T09:54:16;101121.03;;;-0.84;72.40
17072;BME280;7731;50.720;6.912;2022-12-18T09:56:48;101116.88;;;-0.79;71.83
17072;BME280;7731;50.720;6.912;2022-12-18T09:59:25;101108.84;;;-0.49;69.27
17072;BME280;7731;50.720;6.912;2022-12-18T10:01:57;101095.22;;;-1.24;72.88
17072;BME280;7731;50.720;6.912;2022-12-18T10:04:31;101094.16;;;-0.81;72.03
17072;BME280;7731;50.720;6.912;2022-12-18T10:07:09;101091.00;;;-0.64;71.60
17072;BME280;7731;50.720;6.912;2022-12-18T10:09:58;101087.03;;;-1.10;72.32
17072;BME280;7731;50.720;6.912;2022-12-18T10:12:40;101093.88;;;-1.01;74.02
17072;BME280;7731;50.720;6.912;2022-12-18T10:15:20;101082.88;;;-0.36;70.35
17072;BME280;7731;50.720;6.912;2022-12-18T10:18:06;101077.31;;;-0.02;69.10
17072;BME280;7731;50.720;6.912;2022-12-18T10:20:51;101084.66;;;-0.28;68.54
17072;BME280;7731;50.720;6.912;2022-12-18T10:23:30;101097.09;;;-0.45;70.33
17072;BME280;7731;50.720;6.912;2022-12-18T10:26:08;101093.78;;;0.49;66.75
17072;BME280;7731;50.720;6.912;2022-12-18T10:28:41;101092.97;;;0.57;65.08
17072;BME280;7731;50.720;6.912;2022-12-18T10:31:17;101078.59;;;0.46;65.57
17072;BME280;7731;50.720;6.912;2022-12-18T10:33:51;101074.25;;;0.33;63.90
17072;BME280;7731;50.720;6.912;2022-12-18T10:36:24;101085.63;;;-0.12;66.42
17072;BME280;7731;50.720;6.912;2022-12-18T10:39:15;101067.31;;;0.07;66.64
17072;BME280;7731;50.720;6.912;2022-12-18T10:41:52;101069.25;;;0.38;64.10
17072;BME280;7731;50.720;6.912;2022-12-18T10:44:42;101068.72;;;-0.23;67.74
17072;BME280;7731;50.720;6.912;2022-12-18T10:47:17;101068.34;;;-0.60;67.91
17072;BME280;7731;50.720;6.912;2022-12-18T10:49:52;101061.91;;;-0.28;67.98
17072;BME280;7731;50.720;6.912;2022-12-18T10:52:27;101061.31;;;-0.04;67.51
17072;BME280;7731;50.720;6.912;2022-12-18T10:55:02;101059.66;;;0.01;67.56
17072;BME280;7731;50.720;6.912;2022-12-18T10:57:38;101057.34;;;0.26;66.91
17072;BME280;7731;50.720;6.912;2022-12-18T11:00:29;101065.75;;;0.22;65.65
17072;BME280;7731;50.720;6.912;2022-12-18T11:03:32;101063.72;;;-0.16;65.11
17072;BME280;7731;50.720;6.912;2022-12-18T11:06:28;101067.81;;;-1.03;69.60
17072;BME280;7731;50.720;6.912;2022-12-18T11:09:06;101068.44;;;-0.50;70.04
17072;BME280;7731;50.720;6.912;2022-12-18T11:11:49;101061.78;;;-0.42;67.75
17072;BME280;7731;50.720;6.912;2022-12-18T11:14:27;101058.78;;;-0.85;69.71
17072;BME280;7731;50.720;6.912;2022-12-18T11:17:00;101062.97;;;-0.87;71.66
17072;BME280;7731;50.720;6.912;2022-12-18T11:19:55;101066.31;;;-0.88;71.17
17072;BME280;7731;50.720;6.912;2022-12-18T11:22:28;101054.81;;;-0.62;70.33
17072;BME280;7731;50.720;6.912;2022-12-18T11:25:02;101050.75;;;-0.50;69.78
17072;BME280;7731;50.720;6.912;2022-12-18T11:27:56;101050.97;;;-1.04;71.12
17072;BME280;7731;50.720;6.912;2022-12-18T11:30:33;101047.91;;;-0.80;72.04
17072;BME280;7731;50.720;6.912;2022-12-18T11:33:06;101053.41;;;-1.10;71.89
17072;BME280;7731;50.720;6.912;2022-12-18T11:35:47;101049.84;;;-1.24;72.97
17072;BME280;7731;50.720;6.912;2022-12-18T11:38:24;101051.63;;;-1.17;72.00
17072;BME280;7731;50.720;6.912;2022-12-18T11:41:01;101051.91;;;-1.55;74.21
17072;BME280;7731;50.720;6.912;2022-12-18T11:43:38;101055.63;;;-1.32;73.73
17072;BME280;7731;50.720;6.912;2022-12-18T11:46:19;101052.31;;;-1.28;72.78
17072;BME280;7731;50.720;6.912;2022-12-18T11:49:03;101048.19;;;-1.24;74.58
17072;BME280;7731;50.720;6.912;2022-12-18T11:51:43;101032.44;;;-1.06;73.03
17072;BME280;7731;50.720;6.912;2022-12-18T11:54:16;101036.47;;;-1.19;73.54
17072;BME280;7731;50.720;6.912;2022-12-18T11:56:53;101023.94;;;-1.13;74.17
17072;BME280;7731;50.720;6.912;2022-12-18T11:59:43;101019.00;;;-1.05;73.04
17072;BME280;7731;50.720;6.912;2022-12-18T12:06:03;101017.69;;;-1.41;75.28
17072;BME280;7731;50.720;6.912;2022-12-18T12:08:53;101003.13;;;-1.60;75.71
17072;BME280;7731;50.720;6.912;2022-12-18T12:11:43;100990.66;;;-1.51;76.25
17072;BME280;7731;50.720;6.912;2022-12-18T12:14:45;100994.81;;;-1.56;77.15
17072;BME280;7731;50.720;6.912;2022-12-18T12:17:32;101001.25;;;-1.74;77.86
17072;BME280;7731;50.720;6.912;2022-12-18T12:20:16;101001.25;;;-1.74;77.50
17072;BME280;7731;50.720;6.912;2022-12-18T12:22:56;101005.25;;;-1.88;79.15
17072;BME280;7731;50.720;6.912;2022-12-18T12:25:39;100993.41;;;-1.94;79.61
17072;BME280;7731;50.720;6.912;2022-12-18T12:28:51;100976.88;;;-1.76;79.07
17072;BME280;7731;50.720;6.912;2022-12-18T12:32:05;100974.66;;;-1.56;78.22
17072;BME280;7731;50.720;6.912;2022-12-18T12:34:58;100959.69;;;-1.44;76.66
17072;BME280;7731;50.720;6.912;2022-12-18T12:37:47;100975.38;;;-1.65;76.86
17072;BME280;7731;50.720;6.912;2022-12-18T12:40:27;100978.63;;;-1.71;77.57
17072;BME280;7731;50.720;6.912;2022-12-18T12:43:29;100977.03;;;-1.66;78.17
17072;BME280;7731;50.720;6.912;2022-12-18T12:46:05;100979.81;;;-1.47;76.93
17072;BME280;7731;50.720;6.912;2022-12-18T12:48:43;100978.31;;;-1.33;76.70
17072;BME280;7731;50.720;6.912;2022-12-18T12:51:24;101001.34;;;-1.68;77.85
17072;BME280;7731;50.720;6.912;2022-12-18T12:53:59;100999.66;;;-1.69;78.07
17072;BME280;7731;50.720;6.912;2022-12-18T12:56:41;100994.03;;;-1.49;78.28
17072;BME280;7731;50.720;6.912;2022-12-18T12:59:31;100990.47;;;-1.67;78.52
17072;BME280;7731;50.720;6.912;2022-12-18T13:02:15;100985.41;;;-1.68;78.69
17072;BME280;7731;50.720;6.912;2022-12-18T13:05:19;100979.56;;;-1.66;78.51
17072;BME280;7731;50.720;6.912;2022-12-18T13:08:03;100992.78;;;-1.79;79.38
17072;BME280;7731;50.720;6.912;2022-12-18T13:10:38;100986.06;;;-1.80;79.88
17072;BME280;7731;50.720;6.912;2022-12-18T13:13:11;100993.75;;;-1.69;80.52
17072;BME280;7731;50.720;6.912;2022-12-18T13:16:06;100978.03;;;-2.09;80.58
17072;BME280;7731;50.720;6.912;2022-12-18T13:18:37;100986.69;;;-1.95;80.41
17072;BME280;7731;50.720;6.912;2022-12-18T13:21:21;100977.06;;;-2.19;82.09
17072;BME280;7731;50.720;6.912;2022-12-18T13:24:15;100972.69;;;-2.29;83.13
17072;BME280;7731;50.720;6.912;2022-12-18T13:26:50;100957.84;;;-2.14;82.98
17072;BME280;7731;50.720;6.912;2022-12-18T13:29:43;100967.81;;;-2.20;83.56
17072;BME280;7731;50.720;6.912;2022-12-18T13:32:21;100977.66;;;-2.33;84.23
17072;BME280;7731;50.720;6.912;2022-12-18T13:35:38;100961.69;;;-2.36;84.87
17072;BME280;7731;50.720;6.912;2022-12-18T13:38:22;100972.16;;;-2.60;85.89
17072;BME280;7731;50.720;6.912;2022-12-18T13:41:00;100964.72;;;-2.54;86.91
17072;BME280;7731;50.720;6.912;2022-12-18T13:43:41;100975.28;;;-2.25;85.37
17072;BME280;7731;50.720;6.912;2022-12-18T13:46:23;100978.59;;;-2.27;85.26